Terminal Aerodrome Forecast
Issued by NWS

Home | Current Version | Previous Version | Text Only | Print | Product List | Glossary On
Versions: 1 2 3 4 5 6 7 8 9 10 11 12 13 14 15 16 17 18 19 20 21 22 23 24 25 26 27 28 29
000
FTUS41 KOKX 311950 AAA
TAFGON
TAF AMD
KGON 311950Z 3120/0118 23012KT P6SM FEW060
     FM312300 23006KT P6SM FEW060
     FM010100 VRB03KT P6SM FEW060
     FM011300 23007KT P6SM FEW060
     FM011600 21008KT P6SM SCT060=

USA.gov is the U.S. government's official web portal to all federal, state and local government web resources and services.